sensor_id;sensor_type;location;lat;lon;timestamp;P1;durP1;ratioP1;P2;durP2;ratioP2
55483;SDS011;41345;51.704;5.146;2022-12-18T00:00:30;96.28;;;31.50;;
55483;SDS011;41345;51.704;5.146;2022-12-18T00:05:30;126.85;;;34.03;;
55483;SDS011;41345;51.704;5.146;2022-12-18T00:10:31;119.13;;;34.55;;
55483;SDS011;41345;51.704;5.146;2022-12-18T00:15:33;112.93;;;32.40;;
55483;SDS011;41345;51.704;5.146;2022-12-18T00:20:37;99.30;;;31.55;;
55483;SDS011;41345;51.704;5.146;2022-12-18T00:25:38;160.48;;;34.88;;
55483;SDS011;41345;51.704;5.146;2022-12-18T00:30:38;128.05;;;32.92;;
55483;SDS011;41345;51.704;5.146;2022-12-18T00:35:38;112.30;;;32.47;;
55483;SDS011;41345;51.704;5.146;2022-12-18T00:40:39;109.28;;;32.55;;
55483;SDS011;41345;51.704;5.146;2022-12-18T00:45:39;97.63;;;32.08;;
55483;SDS011;41345;51.704;5.146;2022-12-18T00:50:39;100.28;;;28.77;;
55483;SDS011;41345;51.704;5.146;2022-12-18T00:55:40;99.20;;;32.50;;
55483;SDS011;41345;51.704;5.146;2022-12-18T01:00:41;96.28;;;30.15;;
55483;SDS011;41345;51.704;5.146;2022-12-18T01:05:41;83.15;;;30.35;;
55483;SDS011;41345;51.704;5.146;2022-12-18T01:10:42;87.53;;;29.40;;
55483;SDS011;41345;51.704;5.146;2022-12-18T01:16:00;87.03;;;30.98;;
55483;SDS011;41345;51.704;5.146;2022-12-18T01:21:00;94.78;;;30.95;;
55483;SDS011;41345;51.704;5.146;2022-12-18T01:26:04;88.82;;;29.92;;
55483;SDS011;41345;51.704;5.146;2022-12-18T01:36:21;90.55;;;32.60;;
55483;SDS011;41345;51.704;5.146;2022-12-18T01:41:23;79.13;;;29.70;;
55483;SDS011;41345;51.704;5.146;2022-12-18T01:46:24;78.90;;;30.42;;
55483;SDS011;41345;51.704;5.146;2022-12-18T01:51:25;78.32;;;29.13;;
55483;SDS011;41345;51.704;5.146;2022-12-18T01:56:26;82.93;;;30.63;;
55483;SDS011;41345;51.704;5.146;2022-12-18T02:01:27;80.25;;;30.55;;
55483;SDS011;41345;51.704;5.146;2022-12-18T02:06:37;82.82;;;29.98;;
55483;SDS011;41345;51.704;5.146;2022-12-18T02:11:49;75.20;;;29.05;;
55483;SDS011;41345;51.704;5.146;2022-12-18T02:16:57;77.65;;;30.55;;
55483;SDS011;41345;51.704;5.146;2022-12-18T02:27:12;69.10;;;28.10;;
55483;SDS011;41345;51.704;5.146;2022-12-18T02:32:14;77.13;;;29.48;;
55483;SDS011;41345;51.704;5.146;2022-12-18T02:37:16;75.28;;;28.95;;
55483;SDS011;41345;51.704;5.146;2022-12-18T02:42:17;68.22;;;28.08;;
55483;SDS011;41345;51.704;5.146;2022-12-18T02:47:19;68.03;;;26.60;;
55483;SDS011;41345;51.704;5.146;2022-12-18T02:57:40;68.43;;;28.10;;
55483;SDS011;41345;51.704;5.146;2022-12-18T03:07:51;66.72;;;27.75;;
55483;SDS011;41345;51.704;5.146;2022-12-18T03:12:54;71.15;;;25.30;;
55483;SDS011;41345;51.704;5.146;2022-12-18T03:18:00;61.50;;;25.45;;
55483;SDS011;41345;51.704;5.146;2022-12-18T03:23:09;66.27;;;25.07;;
55483;SDS011;41345;51.704;5.146;2022-12-18T03:28:11;63.63;;;26.30;;
55483;SDS011;41345;51.704;5.146;2022-12-18T03:33:14;56.65;;;26.70;;
55483;SDS011;41345;51.704;5.146;2022-12-18T03:38:18;58.45;;;24.60;;
55483;SDS011;41345;51.704;5.146;2022-12-18T03:43:20;55.97;;;24.65;;
55483;SDS011;41345;51.704;5.146;2022-12-18T03:48:28;53.35;;;24.10;;
55483;SDS011;41345;51.704;5.146;2022-12-18T03:53:36;49.85;;;23.77;;
55483;SDS011;41345;51.704;5.146;2022-12-18T03:58:39;54.92;;;25.35;;
55483;SDS011;41345;51.704;5.146;2022-12-18T04:03:40;50.05;;;23.00;;
55483;SDS011;41345;51.704;5.146;2022-12-18T04:08:41;53.58;;;23.55;;
55483;SDS011;41345;51.704;5.146;2022-12-18T04:13:42;57.28;;;23.50;;
55483;SDS011;41345;51.704;5.146;2022-12-18T04:18:42;46.83;;;21.58;;
55483;SDS011;41345;51.704;5.146;2022-12-18T04:23:42;51.58;;;22.23;;
55483;SDS011;41345;51.704;5.146;2022-12-18T04:28:43;53.25;;;22.63;;
55483;SDS011;41345;51.704;5.146;2022-12-18T04:33:43;44.83;;;22.10;;
55483;SDS011;41345;51.704;5.146;2022-12-18T04:38:43;41.55;;;20.10;;
55483;SDS011;41345;51.704;5.146;2022-12-18T04:43:44;45.53;;;22.58;;
55483;SDS011;41345;51.704;5.146;2022-12-18T04:48:45;44.13;;;21.48;;
55483;SDS011;41345;51.704;5.146;2022-12-18T04:53:45;53.25;;;22.48;;
55483;SDS011;41345;51.704;5.146;2022-12-18T04:58:45;41.58;;;20.45;;
55483;SDS011;41345;51.704;5.146;2022-12-18T05:03:46;38.20;;;20.17;;
55483;SDS011;41345;51.704;5.146;2022-12-18T05:08:46;44.72;;;21.15;;
55483;SDS011;41345;51.704;5.146;2022-12-18T05:13:47;47.53;;;21.00;;
55483;SDS011;41345;51.704;5.146;2022-12-18T05:18:47;45.97;;;21.20;;
55483;SDS011;41345;51.704;5.146;2022-12-18T05:23:47;45.33;;;21.08;;
55483;SDS011;41345;51.704;5.146;2022-12-18T05:28:48;47.60;;;23.38;;
55483;SDS011;41345;51.704;5.146;2022-12-18T05:33:48;40.10;;;20.05;;
55483;SDS011;41345;51.704;5.146;2022-12-18T05:38:48;41.08;;;19.40;;
55483;SDS011;41345;51.704;5.146;2022-12-18T05:43:49;43.72;;;20.63;;
55483;SDS011;41345;51.704;5.146;2022-12-18T05:48:49;45.20;;;20.52;;
55483;SDS011;41345;51.704;5.146;2022-12-18T05:53:50;40.78;;;19.98;;
55483;SDS011;41345;51.704;5.146;2022-12-18T05:58:52;38.72;;;19.70;;
55483;SDS011;41345;51.704;5.146;2022-12-18T06:03:53;36.30;;;19.02;;
55483;SDS011;41345;51.704;5.146;2022-12-18T06:08:53;46.45;;;20.13;;
55483;SDS011;41345;51.704;5.146;2022-12-18T06:13:54;38.75;;;18.15;;
55483;SDS011;41345;51.704;5.146;2022-12-18T06:18:58;36.80;;;17.98;;
55483;SDS011;41345;51.704;5.146;2022-12-18T06:23:59;38.40;;;19.08;;
55483;SDS011;41345;51.704;5.146;2022-12-18T06:28:59;36.72;;;17.52;;
55483;SDS011;41345;51.704;5.146;2022-12-18T06:34:01;34.08;;;18.92;;
55483;SDS011;41345;51.704;5.146;2022-12-18T06:39:02;38.47;;;18.42;;
55483;SDS011;41345;51.704;5.146;2022-12-18T06:44:02;38.35;;;18.75;;
55483;SDS011;41345;51.704;5.146;2022-12-18T06:49:03;37.22;;;19.33;;
55483;SDS011;41345;51.704;5.146;2022-12-18T06:54:03;36.35;;;19.52;;
55483;SDS011;41345;51.704;5.146;2022-12-18T06:59:03;36.42;;;18.50;;
55483;SDS011;41345;51.704;5.146;2022-12-18T07:04:04;37.80;;;19.23;;
55483;SDS011;41345;51.704;5.146;2022-12-18T07:09:04;37.38;;;18.88;;
55483;SDS011;41345;51.704;5.146;2022-12-18T07:14:04;35.13;;;17.80;;
55483;SDS011;41345;51.704;5.146;2022-12-18T07:19:05;39.20;;;20.02;;
55483;SDS011;41345;51.704;5.146;2022-12-18T07:24:05;37.33;;;19.08;;
55483;SDS011;41345;51.704;5.146;2022-12-18T07:29:06;38.50;;;18.05;;
55483;SDS011;41345;51.704;5.146;2022-12-18T07:34:09;35.70;;;18.92;;
55483;SDS011;41345;51.704;5.146;2022-12-18T07:39:12;34.33;;;18.65;;
55483;SDS011;41345;51.704;5.146;2022-12-18T07:44:13;38.05;;;18.60;;
55483;SDS011;41345;51.704;5.146;2022-12-18T07:49:13;38.22;;;18.77;;
55483;SDS011;41345;51.704;5.146;2022-12-18T07:54:13;39.25;;;18.08;;
55483;SDS011;41345;51.704;5.146;2022-12-18T07:59:14;33.58;;;18.25;;
55483;SDS011;41345;51.704;5.146;2022-12-18T08:04:14;38.58;;;17.75;;
55483;SDS011;41345;51.704;5.146;2022-12-18T08:09:14;36.20;;;18.27;;
55483;SDS011;41345;51.704;5.146;2022-12-18T08:14:15;39.90;;;19.23;;
55483;SDS011;41345;51.704;5.146;2022-12-18T08:19:15;35.05;;;17.98;;
55483;SDS011;41345;51.704;5.146;2022-12-18T08:24:15;38.75;;;18.55;;
55483;SDS011;41345;51.704;5.146;2022-12-18T08:29:16;39.13;;;19.45;;
55483;SDS011;41345;51.704;5.146;2022-12-18T08:34:16;36.88;;;18.13;;
55483;SDS011;41345;51.704;5.146;2022-12-18T08:39:16;36.28;;;18.52;;
55483;SDS011;41345;51.704;5.146;2022-12-18T08:44:16;39.30;;;19.50;;
55483;SDS011;41345;51.704;5.146;2022-12-18T08:49:35;36.55;;;18.45;;
55483;SDS011;41345;51.704;5.146;2022-12-18T08:54:35;36.83;;;19.63;;
55483;SDS011;41345;51.704;5.146;2022-12-18T08:59:36;35.78;;;18.38;;
55483;SDS011;41345;51.704;5.146;2022-12-18T09:04:36;36.42;;;18.83;;
55483;SDS011;41345;51.704;5.146;2022-12-18T09:09:36;38.45;;;18.23;;
55483;SDS011;41345;51.704;5.146;2022-12-18T09:14:37;37.08;;;18.70;;
55483;SDS011;41345;51.704;5.146;2022-12-18T09:19:37;40.38;;;18.55;;
55483;SDS011;41345;51.704;5.146;2022-12-18T09:24:37;35.00;;;17.05;;
55483;SDS011;41345;51.704;5.146;2022-12-18T09:29:38;41.40;;;20.08;;
55483;SDS011;41345;51.704;5.146;2022-12-18T09:34:38;33.03;;;18.02;;
55483;SDS011;41345;51.704;5.146;2022-12-18T09:39:38;36.13;;;18.70;;
55483;SDS011;41345;51.704;5.146;2022-12-18T09:44:40;32.67;;;17.88;;
55483;SDS011;41345;51.704;5.146;2022-12-18T09:49:45;39.55;;;20.08;;
55483;SDS011;41345;51.704;5.146;2022-12-18T09:54:53;30.33;;;17.80;;
55483;SDS011;41345;51.704;5.146;2022-12-18T09:59:56;35.88;;;18.17;;
55483;SDS011;41345;51.704;5.146;2022-12-18T10:05:03;34.03;;;18.65;;
55483;SDS011;41345;51.704;5.146;2022-12-18T10:10:13;29.77;;;16.02;;
55483;SDS011;41345;51.704;5.146;2022-12-18T10:30:22;31.70;;;17.80;;
55483;SDS011;41345;51.704;5.146;2022-12-18T10:35:24;34.08;;;17.92;;
55483;SDS011;41345;51.704;5.146;2022-12-18T10:40:24;36.38;;;18.40;;
55483;SDS011;41345;51.704;5.146;2022-12-18T10:45:25;31.40;;;16.20;;
55483;SDS011;41345;51.704;5.146;2022-12-18T10:50:29;34.85;;;17.83;;
55483;SDS011;41345;51.704;5.146;2022-12-18T11:00:30;29.65;;;16.20;;
55483;SDS011;41345;51.704;5.146;2022-12-18T11:05:31;33.75;;;17.17;;
55483;SDS011;41345;51.704;5.146;2022-12-18T11:10:33;32.20;;;16.58;;
55483;SDS011;41345;51.704;5.146;2022-12-18T11:15:34;31.08;;;16.85;;
55483;SDS011;41345;51.704;5.146;2022-12-18T11:20:34;32.70;;;17.17;;
55483;SDS011;41345;51.704;5.146;2022-12-18T11:25:35;28.77;;;16.02;;
55483;SDS011;41345;51.704;5.146;2022-12-18T11:30:36;32.53;;;16.77;;
55483;SDS011;41345;51.704;5.146;2022-12-18T11:40:40;31.35;;;16.55;;
55483;SDS011;41345;51.704;5.146;2022-12-18T11:45:52;29.30;;;16.13;;
55483;SDS011;41345;51.704;5.146;2022-12-18T11:50:53;31.30;;;16.42;;
55483;SDS011;41345;51.704;5.146;2022-12-18T12:06:08;30.67;;;16.75;;
55483;SDS011;41345;51.704;5.146;2022-12-18T12:26:32;32.15;;;15.82;;
55483;SDS011;41345;51.704;5.146;2022-12-18T12:41:40;28.50;;;15.93;;
55483;SDS011;41345;51.704;5.146;2022-12-18T12:47:00;32.22;;;16.40;;
55483;SDS011;41345;51.704;5.146;2022-12-18T12:52:07;31.00;;;16.33;;
55483;SDS011;41345;51.704;5.146;2022-12-18T13:12:12;29.00;;;15.95;;
55483;SDS011;41345;51.704;5.146;2022-12-18T13:17:31;29.27;;;15.82;;
55483;SDS011;41345;51.704;5.146;2022-12-18T13:22:34;31.85;;;16.02;;
55483;SDS011;41345;51.704;5.146;2022-12-18T13:32:45;31.33;;;16.45;;
55483;SDS011;41345;51.704;5.146;2022-12-18T13:37:51;26.98;;;15.18;;
55483;SDS011;41345;51.704;5.146;2022-12-18T13:42:52;33.45;;;18.08;;
55483;SDS011;41345;51.704;5.146;2022-12-18T13:48:14;30.90;;;15.77;;
55483;SDS011;41345;51.704;5.146;2022-12-18T13:53:23;30.13;;;17.20;;
55483;SDS011;41345;51.704;5.146;2022-12-18T13:58:24;28.52;;;15.10;;
55483;SDS011;41345;51.704;5.146;2022-12-18T14:03:25;31.33;;;15.93;;
55483;SDS011;41345;51.704;5.146;2022-12-18T14:08:27;31.45;;;15.75;;
55483;SDS011;41345;51.704;5.146;2022-12-18T14:13:31;29.98;;;16.23;;
55483;SDS011;41345;51.704;5.146;2022-12-18T14:18:48;28.95;;;15.40;;
55483;SDS011;41345;51.704;5.146;2022-12-18T14:24:03;32.05;;;17.95;;
55483;SDS011;41345;51.704;5.146;2022-12-18T14:34:25;32.63;;;15.88;;
55483;SDS011;41345;51.704;5.146;2022-12-18T14:39:26;33.10;;;16.02;;
55483;SDS011;41345;51.704;5.146;2022-12-18T14:44:26;29.90;;;16.40;;
55483;SDS011;41345;51.704;5.146;2022-12-18T14:49:29;32.00;;;16.37;;
55483;SDS011;41345;51.704;5.146;2022-12-18T14:54:29;34.60;;;16.98;;
55483;SDS011;41345;51.704;5.146;2022-12-18T14:59:31;33.60;;;16.42;;
55483;SDS011;41345;51.704;5.146;2022-12-18T15:04:36;30.67;;;16.17;;
55483;SDS011;41345;51.704;5.146;2022-12-18T15:09:36;32.08;;;16.00;;
55483;SDS011;41345;51.704;5.146;2022-12-18T15:19:41;32.83;;;16.40;;
55483;SDS011;41345;51.704;5.146;2022-12-18T15:24:42;31.70;;;15.93;;
55483;SDS011;41345;51.704;5.146;2022-12-18T15:29:43;30.33;;;15.35;;
55483;SDS011;41345;51.704;5.146;2022-12-18T15:34:43;34.23;;;17.40;;
55483;SDS011;41345;51.704;5.146;2022-12-18T15:39:43;32.92;;;16.17;;
55483;SDS011;41345;51.704;5.146;2022-12-18T15:44:44;29.50;;;15.85;;
55483;SDS011;41345;51.704;5.146;2022-12-18T15:49:44;28.60;;;14.43;;
55483;SDS011;41345;51.704;5.146;2022-12-18T15:54:45;32.20;;;15.15;;
55483;SDS011;41345;51.704;5.146;2022-12-18T16:00:04;33.03;;;16.13;;
55483;SDS011;41345;51.704;5.146;2022-12-18T16:05:09;29.90;;;15.75;;
55483;SDS011;41345;51.704;5.146;2022-12-18T16:10:13;31.52;;;15.63;;
55483;SDS011;41345;51.704;5.146;2022-12-18T16:15:14;41.28;;;16.38;;
55483;SDS011;41345;51.704;5.146;2022-12-18T16:20:17;32.45;;;15.40;;
55483;SDS011;41345;51.704;5.146;2022-12-18T16:25:25;31.88;;;16.08;;
55483;SDS011;41345;51.704;5.146;2022-12-18T16:30:28;32.53;;;15.30;;
55483;SDS011;41345;51.704;5.146;2022-12-18T16:35:28;31.17;;;15.65;;
55483;SDS011;41345;51.704;5.146;2022-12-18T16:40:30;31.45;;;16.42;;
55483;SDS011;41345;51.704;5.146;2022-12-18T16:45:31;32.70;;;16.92;;
55483;SDS011;41345;51.704;5.146;2022-12-18T16:50:32;29.05;;;15.43;;
55483;SDS011;41345;51.704;5.146;2022-12-18T16:55:33;30.15;;;16.33;;
55483;SDS011;41345;51.704;5.146;2022-12-18T17:00:33;27.65;;;15.55;;
55483;SDS011;41345;51.704;5.146;2022-12-18T17:05:34;29.98;;;16.48;;
55483;SDS011;41345;51.704;5.146;2022-12-18T17:10:34;31.08;;;16.77;;
55483;SDS011;41345;51.704;5.146;2022-12-18T17:15:34;30.88;;;16.13;;
55483;SDS011;41345;51.704;5.146;2022-12-18T17:20:35;28.17;;;14.98;;
55483;SDS011;41345;51.704;5.146;2022-12-18T17:25:38;30.60;;;15.02;;
55483;SDS011;41345;51.704;5.146;2022-12-18T17:30:38;30.70;;;15.60;;
55483;SDS011;41345;51.704;5.146;2022-12-18T17:35:39;31.48;;;17.88;;
55483;SDS011;41345;51.704;5.146;2022-12-18T17:40:39;32.40;;;16.58;;
55483;SDS011;41345;51.704;5.146;2022-12-18T17:45:39;31.20;;;16.27;;
55483;SDS011;41345;51.704;5.146;2022-12-18T17:50:40;33.10;;;16.55;;
55483;SDS011;41345;51.704;5.146;2022-12-18T17:55:40;34.00;;;17.85;;
55483;SDS011;41345;51.704;5.146;2022-12-18T18:00:40;29.40;;;15.45;;
55483;SDS011;41345;51.704;5.146;2022-12-18T18:05:41;31.02;;;16.63;;
55483;SDS011;41345;51.704;5.146;2022-12-18T18:10:41;34.20;;;17.10;;
55483;SDS011;41345;51.704;5.146;2022-12-18T18:15:41;33.00;;;17.35;;
55483;SDS011;41345;51.704;5.146;2022-12-18T18:20:42;36.00;;;19.83;;
55483;SDS011;41345;51.704;5.146;2022-12-18T18:25:42;31.60;;;16.15;;
55483;SDS011;41345;51.704;5.146;2022-12-18T18:30:42;30.77;;;16.20;;
55483;SDS011;41345;51.704;5.146;2022-12-18T18:35:43;31.63;;;16.25;;
55483;SDS011;41345;51.704;5.146;2022-12-18T18:40:43;32.40;;;17.25;;
55483;SDS011;41345;51.704;5.146;2022-12-18T18:45:43;32.17;;;17.05;;
55483;SDS011;41345;51.704;5.146;2022-12-18T18:50:44;31.52;;;16.52;;
55483;SDS011;41345;51.704;5.146;2022-12-18T18:55:57;30.13;;;16.25;;
55483;SDS011;41345;51.704;5.146;2022-12-18T19:00:59;33.10;;;16.33;;
55483;SDS011;41345;51.704;5.146;2022-12-18T19:06:00;32.72;;;16.13;;
55483;SDS011;41345;51.704;5.146;2022-12-18T19:11:01;30.55;;;16.50;;
55483;SDS011;41345;51.704;5.146;2022-12-18T19:16:03;32.58;;;17.85;;
55483;SDS011;41345;51.704;5.146;2022-12-18T19:21:04;32.17;;;17.23;;
55483;SDS011;41345;51.704;5.146;2022-12-18T19:26:05;33.83;;;18.23;;
55483;SDS011;41345;51.704;5.146;2022-12-18T19:31:07;35.08;;;18.13;;
55483;SDS011;41345;51.704;5.146;2022-12-18T19:36:12;37.38;;;20.00;;
55483;SDS011;41345;51.704;5.146;2022-12-18T19:41:13;34.28;;;19.63;;
55483;SDS011;41345;51.704;5.146;2022-12-18T19:46:15;39.13;;;19.65;;
55483;SDS011;41345;51.704;5.146;2022-12-18T19:51:16;33.83;;;19.95;;
55483;SDS011;41345;51.704;5.146;2022-12-18T19:56:18;37.58;;;20.85;;
55483;SDS011;41345;51.704;5.146;2022-12-18T20:01:19;39.58;;;20.08;;
55483;SDS011;41345;51.704;5.146;2022-12-18T20:06:23;34.55;;;19.83;;
55483;SDS011;41345;51.704;5.146;2022-12-18T20:16:25;33.50;;;19.88;;
55483;SDS011;41345;51.704;5.146;2022-12-18T20:21:25;37.23;;;20.90;;
55483;SDS011;41345;51.704;5.146;2022-12-18T20:26:26;38.95;;;21.80;;
55483;SDS011;41345;51.704;5.146;2022-12-18T20:31:26;40.65;;;21.92;;
55483;SDS011;41345;51.704;5.146;2022-12-18T20:36:26;44.75;;;23.35;;
55483;SDS011;41345;51.704;5.146;2022-12-18T20:41:27;41.00;;;22.40;;
55483;SDS011;41345;51.704;5.146;2022-12-18T20:46:27;42.35;;;23.30;;
55483;SDS011;41345;51.704;5.146;2022-12-18T20:51:27;44.47;;;23.80;;
55483;SDS011;41345;51.704;5.146;2022-12-18T20:56:29;38.45;;;22.52;;
55483;SDS011;41345;51.704;5.146;2022-12-18T21:01:29;41.45;;;22.70;;
55483;SDS011;41345;51.704;5.146;2022-12-18T21:06:30;45.03;;;24.08;;
55483;SDS011;41345;51.704;5.146;2022-12-18T21:11:31;43.03;;;23.25;;
55483;SDS011;41345;51.704;5.146;2022-12-18T21:16:50;41.75;;;23.50;;
55483;SDS011;41345;51.704;5.146;2022-12-18T21:21:51;47.50;;;23.60;;
55483;SDS011;41345;51.704;5.146;2022-12-18T21:26:51;45.63;;;24.15;;
55483;SDS011;41345;51.704;5.146;2022-12-18T21:31:52;41.33;;;23.40;;
55483;SDS011;41345;51.704;5.146;2022-12-18T21:36:54;45.17;;;24.77;;
55483;SDS011;41345;51.704;5.146;2022-12-18T21:41:54;49.97;;;24.77;;
55483;SDS011;41345;51.704;5.146;2022-12-18T21:47:13;48.90;;;23.75;;
55483;SDS011;41345;51.704;5.146;2022-12-18T21:52:14;42.63;;;23.02;;
55483;SDS011;41345;51.704;5.146;2022-12-18T21:57:14;48.60;;;23.25;;
55483;SDS011;41345;51.704;5.146;2022-12-18T22:02:18;43.15;;;23.30;;
55483;SDS011;41345;51.704;5.146;2022-12-18T22:12:19;45.85;;;23.23;;
55483;SDS011;41345;51.704;5.146;2022-12-18T22:17:34;42.93;;;23.30;;
55483;SDS011;41345;51.704;5.146;2022-12-18T22:22:34;48.70;;;23.73;;
55483;SDS011;41345;51.704;5.146;2022-12-18T22:27:34;52.78;;;26.40;;
55483;SDS011;41345;51.704;5.146;2022-12-18T22:32:35;50.33;;;24.58;;
55483;SDS011;41345;51.704;5.146;2022-12-18T22:37:35;49.33;;;24.70;;
55483;SDS011;41345;51.704;5.146;2022-12-18T22:42:35;50.30;;;24.60;;
55483;SDS011;41345;51.704;5.146;2022-12-18T22:47:37;49.90;;;25.10;;
55483;SDS011;41345;51.704;5.146;2022-12-18T22:52:37;51.97;;;25.30;;
55483;SDS011;41345;51.704;5.146;2022-12-18T22:57:38;57.17;;;25.73;;
55483;SDS011;41345;51.704;5.146;2022-12-18T23:02:38;49.08;;;24.73;;
55483;SDS011;41345;51.704;5.146;2022-12-18T23:07:38;54.00;;;27.20;;
55483;SDS011;41345;51.704;5.146;2022-12-18T23:12:38;52.00;;;24.92;;
55483;SDS011;41345;51.704;5.146;2022-12-18T23:17:39;51.90;;;24.05;;
55483;SDS011;41345;51.704;5.146;2022-12-18T23:22:39;46.83;;;24.23;;
55483;SDS011;41345;51.704;5.146;2022-12-18T23:27:39;49.00;;;25.20;;
55483;SDS011;41345;51.704;5.146;2022-12-18T23:32:39;54.95;;;26.08;;
55483;SDS011;41345;51.704;5.146;2022-12-18T23:37:40;57.30;;;25.38;;
55483;SDS011;41345;51.704;5.146;2022-12-18T23:42:40;52.50;;;25.63;;
55483;SDS011;41345;51.704;5.146;2022-12-18T23:47:41;58.85;;;25.52;;
55483;SDS011;41345;51.704;5.146;2022-12-18T23:52:41;55.57;;;25.13;;
55483;SDS011;41345;51.704;5.146;2022-12-18T23:57:41;60.13;;;25.02;;
